createdAt,value
2018-12-08T00:00:36.506Z,8.18
2018-12-08T00:01:36.488Z,8.15
2018-12-08T00:02:36.487Z,8.25
2018-12-08T00:03:36.518Z,8.20
2018-12-08T00:04:36.457Z,8.12
2018-12-08T00:05:36.450Z,8.10
2018-12-08T00:06:36.436Z,8.16
2018-12-08T00:07:36.421Z,8.12
2018-12-08T00:08:36.417Z,8.11
2018-12-08T00:09:36.422Z,8.10
2018-12-08T00:10:36.387Z,8.12
2018-12-08T00:11:36.378Z,8.11
2018-12-08T00:12:36.367Z,8.05
2018-12-08T00:13:45.868Z,8.02
2018-12-08T00:14:36.457Z,8.02
2018-12-08T00:15:46.787Z,7.98
2018-12-08T00:16:36.369Z,7.97
2018-12-08T00:17:36.350Z,7.92
2018-12-08T00:18:36.343Z,7.93
2018-12-08T00:19:36.338Z,7.92
2018-12-08T00:20:36.433Z,7.93
2018-12-08T00:21:36.292Z,7.90
2018-12-08T00:22:36.259Z,7.90
2018-12-08T00:23:36.264Z,7.83
2018-12-08T00:24:36.240Z,7.40
2018-12-08T00:25:45.871Z,6.74
2018-12-08T00:26:36.302Z,6.41
2018-12-08T00:27:36.313Z,6.17
2018-12-08T00:28:36.268Z,6.03
2018-12-08T00:29:44.874Z,5.85
2018-12-08T00:30:36.268Z,5.68
2018-12-08T00:31:36.246Z,5.67
2018-12-08T00:32:36.190Z,5.64
2018-12-08T00:33:44.825Z,5.45
2018-12-08T00:34:45.739Z,5.30
2018-12-08T00:35:36.205Z,5.28
2018-12-08T00:36:36.128Z,5.25
2018-12-08T00:37:36.165Z,5.07
2018-12-08T00:38:36.182Z,5.15
2018-12-08T00:39:36.117Z,5.07
2018-12-08T00:40:44.745Z,5.10
2018-12-08T00:41:36.122Z,5.12
2018-12-08T00:42:47.425Z,5.00
2018-12-08T00:43:36.101Z,5.09
2018-12-08T00:44:44.684Z,5.03
2018-12-08T00:45:36.078Z,5.04
2018-12-08T00:46:36.070Z,4.96
2018-12-08T00:47:44.676Z,4.92
2018-12-08T00:48:36.148Z,4.94
2018-12-08T00:49:44.697Z,4.78
2018-12-08T00:50:44.636Z,4.85
2018-12-08T00:52:49.287Z,4.85
2018-12-08T00:53:49.258Z,4.92
2018-12-08T00:56:00.505Z,4.80
2018-12-08T00:58:57.698Z,4.75
2018-12-08T01:00:07.424Z,4.65
2018-12-08T01:01:07.451Z,4.73
2018-12-08T01:01:57.569Z,4.75
2018-12-08T01:02:57.585Z,4.58
2018-12-08T01:04:08.643Z,4.62
2018-12-08T01:05:07.455Z,4.62
2018-12-08T01:05:57.547Z,4.59
2018-12-08T01:07:06.977Z,4.50
2018-12-08T01:08:07.484Z,4.45
2018-12-08T01:10:08.820Z,4.52
2018-12-08T01:12:20.406Z,4.48
2018-12-08T01:14:34.321Z,4.47
2018-12-08T01:16:45.546Z,4.44
2018-12-08T01:17:54.940Z,4.51
2018-12-08T01:19:57.541Z,4.55
2018-12-08T01:20:57.540Z,4.50
2018-12-08T01:21:57.542Z,4.42
2018-12-08T01:22:57.618Z,4.41
2018-12-08T01:24:10.330Z,4.48
2018-12-08T01:24:57.511Z,4.50
2018-12-08T01:26:06.101Z,4.52
2018-12-08T01:27:11.627Z,4.47
2018-12-08T01:29:08.788Z,4.47
2018-12-08T01:30:08.825Z,4.34
2018-12-08T01:32:21.060Z,4.37
2018-12-08T01:33:31.722Z,4.48
2018-12-08T01:35:35.221Z,4.47
2018-12-08T01:36:36.053Z,4.52
2018-12-08T01:37:44.637Z,4.52
2018-12-08T01:39:48.581Z,4.42
2018-12-08T01:40:48.547Z,4.40
2018-12-08T01:42:59.834Z,4.42
2018-12-08T01:44:10.800Z,4.36
2018-12-08T01:45:09.205Z,4.42
2018-12-08T01:45:59.709Z,4.52
2018-12-08T01:47:09.130Z,4.41
2018-12-08T01:49:12.480Z,4.42
2018-12-08T01:50:12.444Z,4.48
2018-12-08T01:51:22.120Z,4.42
2018-12-08T01:53:24.490Z,4.42
2018-12-08T01:55:35.692Z,4.41
2018-12-08T01:56:35.586Z,4.37
2018-12-08T01:57:46.799Z,4.37
2018-12-08T01:58:35.617Z,4.33
2018-12-08T01:59:45.023Z,4.33
2018-12-08T02:00:45.576Z,4.40
2018-12-08T02:01:45.039Z,4.42
2018-12-08T02:02:35.582Z,4.45
2018-12-08T02:03:35.532Z,4.47
2018-12-08T02:04:35.511Z,4.44
2018-12-08T02:05:35.547Z,4.40
2018-12-08T02:06:35.426Z,4.40
2018-12-08T02:07:35.398Z,4.40
2018-12-08T02:08:35.394Z,4.47
2018-12-08T02:09:35.368Z,4.42
2018-12-08T02:10:35.481Z,4.40
2018-12-08T02:11:35.365Z,4.37
2018-12-08T02:12:35.340Z,4.40
2018-12-08T02:13:44.851Z,4.42
2018-12-08T02:14:35.370Z,4.45
2018-12-08T02:15:35.348Z,4.36
2018-12-08T02:16:44.870Z,4.23
2018-12-08T02:17:35.348Z,4.32
2018-12-08T02:18:35.303Z,4.32
2018-12-08T02:19:36.039Z,4.29
2018-12-08T02:20:35.314Z,4.29
2018-12-08T02:21:44.802Z,4.29
2018-12-08T02:22:35.287Z,4.32
2018-12-08T02:23:44.776Z,4.27
2018-12-08T02:24:35.273Z,4.27
2018-12-08T02:25:44.767Z,4.32
2018-12-08T02:27:46.591Z,4.30
2018-12-08T02:30:00.738Z,4.29
2018-12-08T02:31:00.606Z,4.26
2018-12-08T02:32:00.628Z,4.27
2018-12-08T02:33:10.376Z,4.29
2018-12-08T02:34:00.554Z,4.27
2018-12-08T02:35:10.569Z,4.32
2018-12-08T02:36:10.372Z,4.29
2018-12-08T02:37:00.521Z,4.32
2018-12-08T02:38:00.521Z,4.33
2018-12-08T02:39:16.106Z,4.29
2018-12-08T02:40:00.513Z,4.15
2018-12-08T02:41:00.504Z,4.15
2018-12-08T02:42:00.440Z,4.32
2018-12-08T02:43:09.095Z,4.23
2018-12-08T02:44:00.494Z,4.22
2018-12-08T02:45:09.925Z,4.24
2018-12-08T02:46:09.056Z,4.23
2018-12-08T02:47:00.432Z,4.16
2018-12-08T02:48:00.435Z,4.18
2018-12-08T02:49:00.398Z,4.23
2018-12-08T02:50:00.387Z,4.20
2018-12-08T02:51:09.005Z,4.14
2018-12-08T02:52:00.382Z,4.15
2018-12-08T02:53:14.483Z,4.22
2018-12-08T02:54:11.107Z,4.15
2018-12-08T02:55:00.338Z,4.22
2018-12-08T02:56:00.286Z,4.18
2018-12-08T02:57:00.304Z,4.16
2018-12-08T02:58:00.293Z,4.22
2018-12-08T02:59:00.263Z,4.20
2018-12-08T03:00:10.789Z,4.22
2018-12-08T03:03:22.687Z,4.27
2018-12-08T03:04:23.455Z,4.14
2018-12-08T03:05:22.579Z,4.34
2018-12-08T03:06:22.534Z,4.32
2018-12-08T03:07:22.598Z,4.26
2018-12-08T03:08:33.133Z,4.33
2018-12-08T03:09:32.251Z,4.30
2018-12-08T03:10:22.526Z,4.34
2018-12-08T03:11:22.458Z,4.29
2018-12-08T03:12:22.465Z,4.27
2018-12-08T03:13:33.448Z,4.23
2018-12-08T03:14:22.432Z,4.33
2018-12-08T03:15:31.067Z,4.32
2018-12-08T03:18:26.040Z,4.24
2018-12-08T03:19:40.779Z,4.30
2018-12-08T03:20:25.959Z,4.23
2018-12-08T03:21:35.679Z,4.23
2018-12-08T03:22:25.837Z,4.18
2018-12-08T03:23:25.856Z,4.30
2018-12-08T03:24:25.844Z,4.20
2018-12-08T03:25:25.815Z,4.27
2018-12-08T03:26:40.530Z,4.18
2018-12-08T03:27:35.242Z,4.33
2018-12-08T03:28:25.788Z,4.29
2018-12-08T03:29:25.837Z,4.29
2018-12-08T03:30:25.807Z,4.33
2018-12-08T03:31:34.408Z,4.29
2018-12-08T03:32:35.690Z,4.30
2018-12-08T03:34:37.084Z,4.30
2018-12-08T03:35:47.547Z,4.29
2018-12-08T03:37:51.381Z,4.29
2018-12-08T03:40:04.547Z,4.33
2018-12-08T03:41:04.571Z,4.36
2018-12-08T03:42:04.402Z,4.33
2018-12-08T03:43:04.423Z,4.32
2018-12-08T03:44:04.434Z,4.37
2018-12-08T03:45:04.398Z,4.36
2018-12-08T03:46:04.398Z,4.32
2018-12-08T03:47:04.482Z,4.34
2018-12-08T03:48:04.332Z,4.30
2018-12-08T03:49:04.303Z,4.30
2018-12-08T03:50:04.398Z,4.37
2018-12-08T03:51:04.278Z,4.40
2018-12-08T03:52:04.294Z,4.36
2018-12-08T03:53:04.271Z,4.41
2018-12-08T03:54:04.250Z,4.45
2018-12-08T03:55:04.229Z,4.44
2018-12-08T03:56:13.793Z,4.34
2018-12-08T03:57:04.240Z,4.40
2018-12-08T03:58:04.285Z,4.33
2018-12-08T03:59:04.264Z,4.41
2018-12-08T04:00:04.215Z,4.33
2018-12-08T04:01:04.188Z,4.32
2018-12-08T04:02:04.172Z,4.27
2018-12-08T04:03:04.200Z,4.34
2018-12-08T04:04:04.198Z,4.33
2018-12-08T04:05:04.193Z,4.37
2018-12-08T04:06:04.146Z,4.36
2018-12-08T04:07:04.097Z,4.27
2018-12-08T04:08:04.143Z,4.33
2018-12-08T04:09:04.140Z,4.33
2018-12-08T04:10:05.132Z,4.32
2018-12-08T04:11:04.108Z,4.29
2018-12-08T04:12:04.078Z,4.36
2018-12-08T04:13:04.080Z,4.33
2018-12-08T04:14:04.054Z,4.27
2018-12-08T04:15:04.079Z,4.23
2018-12-08T04:16:04.121Z,4.30
2018-12-08T04:17:04.010Z,4.32
2018-12-08T04:18:03.975Z,4.32
2018-12-08T04:19:03.978Z,4.27
2018-12-08T04:20:03.997Z,4.33
2018-12-08T04:21:03.959Z,4.33
2018-12-08T04:22:03.941Z,4.32
2018-12-08T04:23:03.918Z,4.30
2018-12-08T04:24:03.908Z,4.33
2018-12-08T04:25:03.897Z,4.29
2018-12-08T04:26:03.912Z,4.32
2018-12-08T04:27:03.927Z,4.30
2018-12-08T04:28:03.863Z,4.29
2018-12-08T04:29:03.853Z,4.30
2018-12-08T04:30:03.845Z,4.33
2018-12-08T04:31:03.831Z,4.34
2018-12-08T04:32:13.376Z,4.24
2018-12-08T04:33:03.838Z,4.32
2018-12-08T04:34:03.873Z,4.32
2018-12-08T04:35:24.906Z,4.32
2018-12-08T04:36:03.874Z,4.30
2018-12-08T04:37:03.823Z,4.32
2018-12-08T04:38:03.900Z,4.29
2018-12-08T04:39:13.258Z,4.29
2018-12-08T04:40:13.494Z,4.29
2018-12-08T04:41:03.764Z,4.29
2018-12-08T04:42:03.784Z,4.32
2018-12-08T04:43:03.805Z,4.24
2018-12-08T04:44:03.691Z,4.24
2018-12-08T04:45:12.368Z,4.14
2018-12-08T04:46:03.732Z,4.18
2018-12-08T04:47:03.699Z,4.22
2018-12-08T04:48:03.659Z,4.08
2018-12-08T04:49:03.716Z,4.12
2018-12-08T04:50:03.765Z,4.02
2018-12-08T04:51:03.646Z,3.97
2018-12-08T04:52:04.447Z,3.93
2018-12-08T04:53:03.603Z,3.96
2018-12-08T04:54:03.574Z,3.88
2018-12-08T04:55:03.599Z,3.80
2018-12-08T04:56:03.553Z,3.75
2018-12-08T04:57:03.539Z,3.80
2018-12-08T04:58:03.545Z,3.83
2018-12-08T04:59:03.514Z,3.79
2018-12-08T05:00:03.500Z,3.79
2018-12-08T05:01:03.508Z,3.78
2018-12-08T05:02:03.482Z,3.78
2018-12-08T05:03:03.484Z,3.75
2018-12-08T05:04:03.453Z,3.72
2018-12-08T05:05:24.500Z,3.62
2018-12-08T05:06:03.437Z,3.61
2018-12-08T05:07:03.429Z,3.75
2018-12-08T05:08:03.414Z,3.60
2018-12-08T05:09:03.423Z,3.73
2018-12-08T05:10:03.390Z,3.76
2018-12-08T05:11:03.450Z,3.58
2018-12-08T05:12:03.369Z,3.66
2018-12-08T05:13:03.358Z,3.58
2018-12-08T05:14:03.407Z,3.62
2018-12-08T05:15:03.354Z,3.69
2018-12-08T05:16:03.322Z,3.55
2018-12-08T05:17:03.334Z,3.58
2018-12-08T05:18:03.306Z,3.45
2018-12-08T05:19:03.289Z,3.61
2018-12-08T05:20:03.366Z,3.57
2018-12-08T05:21:03.283Z,3.51
2018-12-08T05:22:03.265Z,3.51
2018-12-08T05:23:03.256Z,3.45
2018-12-08T05:24:15.072Z,3.54
2018-12-08T05:26:16.659Z,3.50
2018-12-08T05:28:28.676Z,3.43
2018-12-08T05:29:29.409Z,3.42
2018-12-08T05:30:28.636Z,3.50
2018-12-08T05:31:37.256Z,3.39
2018-12-08T05:33:42.041Z,3.43
2018-12-08T05:38:18.113Z,3.26
2018-12-08T05:39:28.354Z,3.18
2018-12-08T05:40:17.975Z,3.15
2018-12-08T05:41:28.561Z,3.14
2018-12-08T05:43:30.685Z,3.28
2018-12-08T05:44:30.733Z,3.31
2018-12-08T05:45:30.642Z,3.32
2018-12-08T05:46:30.646Z,3.36
2018-12-08T05:47:30.591Z,3.43
2018-12-08T05:48:30.639Z,3.42
2018-12-08T05:49:30.532Z,3.39
2018-12-08T05:50:30.634Z,3.47
2018-12-08T05:51:30.514Z,3.47
2018-12-08T05:52:30.481Z,3.43
2018-12-08T05:53:30.480Z,3.45
2018-12-08T05:54:30.496Z,3.43
2018-12-08T05:55:30.448Z,3.47
2018-12-08T05:56:30.474Z,3.55
2018-12-08T05:57:30.445Z,3.50
2018-12-08T05:58:30.495Z,3.47
2018-12-08T05:59:30.429Z,3.43
2018-12-08T06:00:30.392Z,3.47
2018-12-08T06:01:30.386Z,3.51
2018-12-08T06:02:30.394Z,3.48
2018-12-08T06:03:42.713Z,3.47
2018-12-08T06:04:30.389Z,3.47
2018-12-08T06:05:30.353Z,3.47
2018-12-08T06:06:30.383Z,3.47
2018-12-08T06:07:30.443Z,3.47
2018-12-08T06:08:30.342Z,3.47
2018-12-08T06:09:38.994Z,3.36
2018-12-08T06:10:30.325Z,3.43
2018-12-08T06:11:30.323Z,3.43
2018-12-08T06:12:30.313Z,3.45
2018-12-08T06:14:44.094Z,3.33
2018-12-08T06:15:43.986Z,3.33
2018-12-08T06:16:53.458Z,3.36
2018-12-08T06:17:43.989Z,3.42
2018-12-08T06:18:43.978Z,3.48
2018-12-08T06:19:43.977Z,3.45
2018-12-08T06:20:54.255Z,3.54
2018-12-08T06:21:43.895Z,3.55
2018-12-08T06:22:43.963Z,3.62
2018-12-08T06:23:53.385Z,3.55
2018-12-08T06:24:43.934Z,3.68
2018-12-08T06:25:44.104Z,3.62
2018-12-08T06:26:43.898Z,3.60
2018-12-08T06:27:55.035Z,3.60
2018-12-08T06:28:53.891Z,3.75
2018-12-08T06:29:53.279Z,3.62
2018-12-08T06:30:43.873Z,3.66
2018-12-08T06:31:52.457Z,3.66
2018-12-08T06:32:54.167Z,3.70
2018-12-08T06:33:43.772Z,3.68
2018-12-08T06:34:43.743Z,3.68
2018-12-08T06:35:43.736Z,3.70
2018-12-08T06:36:43.761Z,3.75
2018-12-08T06:37:43.692Z,3.69
2018-12-08T06:38:43.729Z,3.75
2018-12-08T06:39:43.704Z,3.80
2018-12-08T06:40:43.811Z,3.70
2018-12-08T06:41:55.439Z,3.76
2018-12-08T06:42:43.686Z,3.78
2018-12-08T06:43:43.717Z,3.84
2018-12-08T06:44:43.662Z,3.76
2018-12-08T06:45:43.743Z,3.76
2018-12-08T06:46:43.603Z,3.76
2018-12-08T06:47:45.521Z,3.72
2018-12-08T06:48:43.703Z,3.75
2018-12-08T06:49:43.552Z,3.73
2018-12-08T06:50:43.543Z,3.70
2018-12-08T06:51:43.541Z,3.68
2018-12-08T06:52:43.516Z,3.70
2018-12-08T06:53:43.530Z,3.73
2018-12-08T06:54:43.493Z,3.70
2018-12-08T06:55:43.980Z,3.62
2018-12-08T06:56:43.486Z,3.73
2018-12-08T06:57:53.042Z,3.72
2018-12-08T06:59:56.160Z,3.60
2018-12-08T07:01:06.110Z,3.65
2018-12-08T07:01:56.088Z,3.55
2018-12-08T07:02:56.005Z,3.60
2018-12-08T07:03:56.068Z,3.60
2018-12-08T07:05:01.194Z,3.60
2018-12-08T07:06:07.643Z,3.60
2018-12-08T07:06:55.995Z,3.62
2018-12-08T07:07:55.949Z,3.65
2018-12-08T07:08:55.976Z,3.61
2018-12-08T07:10:05.419Z,3.57
2018-12-08T07:10:55.934Z,3.65
2018-12-08T07:11:55.970Z,3.61
2018-12-08T07:12:55.927Z,3.50
2018-12-08T07:13:55.898Z,3.48
2018-12-08T07:14:55.864Z,3.52
2018-12-08T07:16:04.527Z,3.48
2018-12-08T07:16:55.906Z,3.43
2018-12-08T07:18:05.406Z,3.43
2018-12-08T07:18:55.912Z,3.45
2018-12-08T07:19:55.835Z,3.47
2018-12-08T07:20:56.601Z,3.50
2018-12-08T07:22:05.275Z,3.43
2018-12-08T07:22:56.560Z,3.48
2018-12-08T07:24:04.474Z,3.42
2018-12-08T07:24:55.801Z,3.45
2018-12-08T07:26:04.429Z,3.42
2018-12-08T07:26:55.810Z,3.50
2018-12-08T07:27:55.749Z,3.43
2018-12-08T07:28:55.770Z,3.45
2018-12-08T07:29:55.710Z,3.61
2018-12-08T07:30:55.710Z,3.54
2018-12-08T07:31:55.772Z,3.66
2018-12-08T07:32:55.780Z,3.69
2018-12-08T07:33:55.678Z,3.68
2018-12-08T07:34:55.671Z,3.62
2018-12-08T07:35:55.645Z,3.66
2018-12-08T07:37:04.269Z,3.70
2018-12-08T07:37:55.722Z,3.65
2018-12-08T07:38:55.658Z,3.61
2018-12-08T07:39:57.556Z,3.72
2018-12-08T07:40:55.683Z,3.69
2018-12-08T07:41:55.555Z,3.62
2018-12-08T07:42:55.559Z,3.68
2018-12-08T07:43:55.530Z,3.72
2018-12-08T07:44:55.513Z,3.70
2018-12-08T07:45:55.540Z,3.72
2018-12-08T07:46:55.583Z,3.69
2018-12-08T07:48:04.198Z,3.72
2018-12-08T07:48:55.517Z,3.62
2018-12-08T07:50:09.491Z,3.73
2018-12-08T07:50:55.598Z,3.70
2018-12-08T07:51:55.568Z,3.65
2018-12-08T07:52:55.509Z,3.73
2018-12-08T07:53:55.497Z,3.72
2018-12-08T07:54:55.539Z,3.72
2018-12-08T07:55:55.414Z,3.73
2018-12-08T07:56:55.387Z,3.79
2018-12-08T07:57:55.399Z,3.80
2018-12-08T07:58:55.363Z,3.79
2018-12-08T07:59:55.347Z,3.75
2018-12-08T08:01:06.114Z,3.91
2018-12-08T08:03:09.798Z,3.97
2018-12-08T08:04:09.657Z,3.88
2018-12-08T08:05:09.656Z,3.90
2018-12-08T08:06:09.651Z,3.97
2018-12-08T08:07:18.291Z,4.02
2018-12-08T08:08:09.635Z,4.05
2018-12-08T08:09:09.704Z,4.02
2018-12-08T08:10:09.666Z,3.98
2018-12-08T08:11:09.547Z,4.06
2018-12-08T08:12:11.302Z,3.93
2018-12-08T08:13:09.531Z,3.91
2018-12-08T08:14:09.493Z,3.93
2018-12-08T08:15:09.501Z,3.97
2018-12-08T08:16:09.496Z,3.91
2018-12-08T08:17:18.146Z,3.87
2018-12-08T08:18:09.533Z,3.91
2018-12-08T08:19:09.457Z,3.97
2018-12-08T08:20:09.609Z,3.93
2018-12-08T08:21:09.462Z,3.93
2018-12-08T08:22:09.583Z,3.97
2018-12-08T08:23:20.198Z,4.06
2018-12-08T08:24:09.431Z,4.02
2018-12-08T08:25:24.622Z,3.98
2018-12-08T08:27:25.957Z,4.04
2018-12-08T08:28:34.227Z,4.05
2018-12-08T08:29:26.483Z,4.08
2018-12-08T08:30:25.471Z,4.11
2018-12-08T08:31:25.469Z,4.15
2018-12-08T08:32:25.417Z,4.16
2018-12-08T08:33:25.424Z,4.30
2018-12-08T08:34:25.403Z,4.27
2018-12-08T08:35:27.374Z,4.32
2018-12-08T08:36:25.632Z,4.45
2018-12-08T08:37:25.371Z,4.40
2018-12-08T08:38:25.356Z,4.41
2018-12-08T08:39:25.356Z,4.45
2018-12-08T08:40:25.339Z,4.45
2018-12-08T08:41:25.320Z,4.44
2018-12-08T08:42:25.345Z,4.50
2018-12-08T08:43:25.302Z,4.45
2018-12-08T08:44:25.294Z,4.47
2018-12-08T08:45:25.358Z,4.50
2018-12-08T08:46:25.270Z,4.41
2018-12-08T08:47:25.277Z,4.62
2018-12-08T08:48:25.256Z,4.65
2018-12-08T08:49:25.229Z,4.67
2018-12-08T08:50:25.221Z,4.63
2018-12-08T08:51:25.215Z,4.60
2018-12-08T08:52:25.199Z,4.59
2018-12-08T08:53:25.205Z,4.50
2018-12-08T08:54:25.175Z,4.52
2018-12-08T08:55:26.250Z,4.59
2018-12-08T08:56:25.153Z,4.51
2018-12-08T08:57:25.140Z,4.48
2018-12-08T08:58:25.135Z,4.65
2018-12-08T08:59:25.122Z,4.60
2018-12-08T09:00:25.126Z,4.69
2018-12-08T09:01:25.099Z,4.65
2018-12-08T09:02:25.084Z,4.77
2018-12-08T09:03:25.080Z,4.82
2018-12-08T09:04:25.080Z,4.84
2018-12-08T09:05:25.090Z,4.84
2018-12-08T09:06:25.054Z,4.85
2018-12-08T09:07:25.038Z,4.88
2018-12-08T09:08:25.017Z,4.86
2018-12-08T09:09:24.998Z,4.88
2018-12-08T09:10:25.017Z,4.94
2018-12-08T09:11:24.982Z,4.91
2018-12-08T09:12:25.000Z,4.88
2018-12-08T09:13:24.960Z,4.91
2018-12-08T09:14:24.954Z,4.84
2018-12-08T09:15:24.938Z,4.94
2018-12-08T09:16:24.961Z,4.89
2018-12-08T09:17:24.915Z,4.86
2018-12-08T09:18:24.911Z,4.86
2018-12-08T09:19:24.896Z,4.72
2018-12-08T09:20:24.875Z,4.72
2018-12-08T09:21:24.872Z,4.78
2018-12-08T09:22:24.877Z,4.84
2018-12-08T09:23:24.851Z,4.86
2018-12-08T09:24:24.861Z,4.85
2018-12-08T09:25:24.819Z,4.84
2018-12-08T09:26:24.812Z,4.80
2018-12-08T09:27:24.836Z,4.75
2018-12-08T09:28:24.784Z,4.82
2018-12-08T09:29:24.798Z,4.84
2018-12-08T09:30:24.780Z,4.80
2018-12-08T09:31:24.749Z,4.89
2018-12-08T09:32:24.754Z,4.84
2018-12-08T09:33:24.761Z,4.94
2018-12-08T09:34:24.725Z,4.96
2018-12-08T09:35:24.780Z,4.92
2018-12-08T09:36:24.704Z,4.91
2018-12-08T09:37:24.689Z,4.91
2018-12-08T09:38:24.679Z,4.88
2018-12-08T09:39:24.686Z,4.96
2018-12-08T09:40:24.653Z,4.89
2018-12-08T09:41:24.644Z,4.92
2018-12-08T09:42:24.643Z,4.94
2018-12-08T09:43:24.617Z,4.99
2018-12-08T09:44:24.637Z,5.02
2018-12-08T09:45:24.597Z,5.03
2018-12-08T09:46:24.584Z,5.02
2018-12-08T09:47:24.575Z,5.00
2018-12-08T09:48:24.574Z,5.06
2018-12-08T09:49:24.557Z,5.12
2018-12-08T09:50:24.566Z,5.18
2018-12-08T09:51:24.527Z,5.30
2018-12-08T09:52:24.525Z,5.30
2018-12-08T09:53:24.503Z,5.24
2018-12-08T09:54:24.510Z,5.33
2018-12-08T09:55:24.484Z,5.27
2018-12-08T09:56:24.486Z,5.30
2018-12-08T09:57:24.465Z,5.33
2018-12-08T09:58:24.446Z,5.15
2018-12-08T09:59:24.438Z,5.17
2018-12-08T10:00:24.452Z,5.24
2018-12-08T10:01:24.440Z,5.22
2018-12-08T10:02:24.410Z,5.15
2018-12-08T10:03:24.395Z,5.31
2018-12-08T10:04:24.379Z,5.28
2018-12-08T10:05:36.904Z,5.17
2018-12-08T10:06:24.393Z,5.18
2018-12-08T10:07:24.394Z,5.25
2018-12-08T10:08:24.375Z,5.33
2018-12-08T10:09:24.378Z,5.30
2018-12-08T10:10:24.406Z,5.35
2018-12-08T10:11:24.313Z,5.35
2018-12-08T10:12:24.286Z,5.35
2018-12-08T10:13:24.309Z,5.48
2018-12-08T10:14:24.271Z,5.45
2018-12-08T10:15:24.253Z,5.48
2018-12-08T10:16:24.261Z,5.57
2018-12-08T10:17:24.232Z,5.40
2018-12-08T10:18:24.241Z,5.53
2018-12-08T10:19:24.214Z,5.46
2018-12-08T10:20:24.274Z,5.48
2018-12-08T10:21:24.202Z,5.46
2018-12-08T10:22:24.181Z,5.53
2018-12-08T10:23:24.176Z,5.51
2018-12-08T10:24:24.183Z,5.49
2018-12-08T10:25:24.150Z,5.48
2018-12-08T10:26:24.131Z,5.54
2018-12-08T10:27:24.147Z,5.56
2018-12-08T10:28:24.110Z,5.61
2018-12-08T10:29:24.100Z,5.63
2018-12-08T10:30:24.107Z,5.65
2018-12-08T10:31:24.083Z,5.74
2018-12-08T10:32:24.063Z,5.74
2018-12-08T10:33:24.063Z,5.78
2018-12-08T10:34:24.041Z,5.76
2018-12-08T10:35:24.036Z,5.78
2018-12-08T10:36:24.040Z,5.75
2018-12-08T10:37:24.007Z,5.81
2018-12-08T10:38:23.997Z,5.79
2018-12-08T10:39:23.993Z,5.85
2018-12-08T10:40:23.989Z,5.79
2018-12-08T10:41:24.012Z,5.81
2018-12-08T10:42:23.952Z,5.90
2018-12-08T10:43:23.963Z,5.91
2018-12-08T10:44:23.943Z,5.82
2018-12-08T10:45:23.919Z,5.90
2018-12-08T10:46:23.921Z,5.81
2018-12-08T10:47:23.937Z,5.97
2018-12-08T10:48:23.882Z,5.93
2018-12-08T10:49:23.882Z,5.76
2018-12-08T10:50:23.856Z,5.67
2018-12-08T10:51:23.853Z,5.68
2018-12-08T10:52:23.854Z,5.79
2018-12-08T10:53:23.833Z,5.81
2018-12-08T10:54:24.877Z,5.74
2018-12-08T10:55:23.802Z,5.78
2018-12-08T10:56:23.797Z,5.76
2018-12-08T10:57:23.781Z,5.74
2018-12-08T10:58:23.797Z,5.71
2018-12-08T10:59:23.765Z,5.71
2018-12-08T11:00:23.743Z,5.74
2018-12-08T11:01:23.742Z,5.65
2018-12-08T11:02:23.725Z,5.74
2018-12-08T11:03:23.715Z,5.64
2018-12-08T11:04:23.738Z,5.71
2018-12-08T11:05:23.802Z,5.67
2018-12-08T11:06:23.677Z,5.71
2018-12-08T11:07:23.677Z,5.67
2018-12-08T11:08:23.661Z,5.58
2018-12-08T11:09:23.645Z,5.61
2018-12-08T11:10:23.663Z,5.64
2018-12-08T11:11:23.623Z,5.63
2018-12-08T11:12:23.607Z,5.67
2018-12-08T11:13:23.601Z,5.72
2018-12-08T11:14:23.589Z,5.67
2018-12-08T11:15:23.605Z,5.65
2018-12-08T11:16:23.586Z,5.61
2018-12-08T11:17:23.561Z,5.53
2018-12-08T11:18:23.540Z,5.53
2018-12-08T11:19:23.532Z,5.54
2018-12-08T11:20:23.519Z,5.56
2018-12-08T11:21:23.546Z,5.49
2018-12-08T11:22:23.507Z,5.49
2018-12-08T11:23:23.483Z,5.53
2018-12-08T11:24:23.475Z,5.45
2018-12-08T11:25:23.462Z,5.43
2018-12-08T11:26:23.456Z,5.45
2018-12-08T11:27:23.465Z,5.43
2018-12-08T11:28:23.456Z,5.49
2018-12-08T11:29:23.411Z,5.40
2018-12-08T11:30:23.401Z,5.40
2018-12-08T11:31:34.633Z,5.46
2018-12-08T11:32:23.438Z,5.51
2018-12-08T11:33:23.397Z,5.49
2018-12-08T11:34:23.401Z,5.57
2018-12-08T11:35:23.354Z,5.53
2018-12-08T11:36:23.353Z,5.54
2018-12-08T11:37:23.359Z,5.57
2018-12-08T11:38:23.382Z,5.57
2018-12-08T11:39:23.323Z,5.60
2018-12-08T11:40:23.307Z,5.54
2018-12-08T11:41:23.363Z,5.58
2018-12-08T11:42:23.318Z,5.56
2018-12-08T11:43:23.597Z,5.53
2018-12-08T11:44:23.335Z,5.54
2018-12-08T11:45:23.256Z,5.63
2018-12-08T11:46:23.221Z,5.68
2018-12-08T11:47:23.233Z,5.68
2018-12-08T11:48:23.202Z,5.65
2018-12-08T11:49:23.194Z,5.71
2018-12-08T11:50:26.472Z,5.64
2018-12-08T11:51:23.166Z,5.64
2018-12-08T11:52:23.150Z,5.65
2018-12-08T11:53:23.144Z,5.71
2018-12-08T11:54:23.133Z,5.65
2018-12-08T11:55:30.101Z,5.64
2018-12-08T11:56:24.105Z,5.68
2018-12-08T11:57:23.098Z,5.64
2018-12-08T11:58:23.087Z,5.63
2018-12-08T11:59:23.076Z,5.61
2018-12-08T12:00:23.070Z,5.61
2018-12-08T12:01:23.091Z,5.58
2018-12-08T12:02:23.044Z,5.53
2018-12-08T12:03:23.028Z,5.49
2018-12-08T12:04:23.026Z,5.58
2018-12-08T12:05:23.013Z,5.49
2018-12-08T12:06:22.999Z,5.56
2018-12-08T12:07:23.017Z,5.46
2018-12-08T12:08:22.979Z,5.51
2018-12-08T12:09:22.998Z,5.53
2018-12-08T12:10:22.950Z,5.46
2018-12-08T12:11:22.943Z,5.48
2018-12-08T12:12:22.956Z,5.48
2018-12-08T12:13:22.934Z,5.53
2018-12-08T12:14:22.903Z,5.54
2018-12-08T12:15:22.894Z,5.48
2018-12-08T12:16:32.464Z,5.45
2018-12-08T12:17:22.929Z,5.56
2018-12-08T12:18:22.901Z,5.56
2018-12-08T12:19:22.899Z,5.51
2018-12-08T12:20:22.882Z,5.53
2018-12-08T12:21:22.871Z,5.58
2018-12-08T12:22:22.817Z,5.54
2018-12-08T12:23:22.836Z,5.53
2018-12-08T12:24:22.831Z,5.61
2018-12-08T12:25:22.827Z,5.58
2018-12-08T12:26:22.787Z,5.61
2018-12-08T12:27:22.780Z,5.56
2018-12-08T12:28:22.749Z,5.56
2018-12-08T12:29:22.787Z,5.63
2018-12-08T12:30:22.728Z,5.64
2018-12-08T12:31:22.736Z,5.68
2018-12-08T12:32:22.718Z,5.75
2018-12-08T12:33:22.765Z,5.78
2018-12-08T12:34:22.726Z,5.86
2018-12-08T12:35:22.818Z,5.89
2018-12-08T12:36:22.675Z,5.81
2018-12-08T12:37:22.639Z,5.86
2018-12-08T12:38:22.643Z,5.97
2018-12-08T12:39:22.617Z,5.91
2018-12-08T12:40:22.619Z,5.85
2018-12-08T12:41:23.407Z,5.82
2018-12-08T12:42:22.580Z,5.74
2018-12-08T12:43:22.623Z,5.68
2018-12-08T12:44:22.560Z,5.75
2018-12-08T12:45:22.578Z,5.67
2018-12-08T12:46:22.563Z,5.65
2018-12-08T12:47:22.531Z,5.68
2018-12-08T12:48:22.519Z,5.63
2018-12-08T12:49:22.511Z,5.65
2018-12-08T12:50:22.496Z,5.60
2018-12-08T12:51:22.504Z,5.63
2018-12-08T12:52:22.499Z,5.76
2018-12-08T12:53:22.457Z,5.67
2018-12-08T12:54:22.449Z,5.78
2018-12-08T12:55:22.436Z,5.83
2018-12-08T12:56:22.423Z,5.93
2018-12-08T12:57:22.437Z,5.91
2018-12-08T12:58:22.426Z,5.96
2018-12-08T12:59:22.395Z,6.09
2018-12-08T13:00:22.395Z,6.03
2018-12-08T13:01:22.377Z,6.12
2018-12-08T13:02:22.364Z,6.01
2018-12-08T13:03:22.371Z,5.99
2018-12-08T13:04:22.352Z,6.00
2018-12-08T13:05:22.322Z,5.99
2018-12-08T13:06:22.311Z,5.99
2018-12-08T13:07:22.314Z,6.00
2018-12-08T13:08:22.291Z,6.08
2018-12-08T13:09:22.316Z,6.08
2018-12-08T13:10:22.271Z,6.09
2018-12-08T13:11:22.264Z,6.11
2018-12-08T13:12:22.250Z,6.11
2018-12-08T13:13:22.241Z,6.19
2018-12-08T13:14:22.223Z,6.18
2018-12-08T13:15:22.907Z,6.12
2018-12-08T13:16:22.198Z,6.14
2018-12-08T13:17:22.192Z,6.11
2018-12-08T13:18:22.179Z,6.06
2018-12-08T13:19:22.163Z,6.06
2018-12-08T13:20:22.159Z,6.08
2018-12-08T13:21:22.168Z,6.01
2018-12-08T13:22:22.134Z,6.03
2018-12-08T13:23:22.119Z,6.06
2018-12-08T13:24:22.110Z,6.06
2018-12-08T13:25:22.093Z,5.99
2018-12-08T13:26:22.122Z,5.93
2018-12-08T13:27:22.103Z,5.96
2018-12-08T13:28:22.065Z,5.91
2018-12-08T13:29:22.056Z,5.96
2018-12-08T13:30:22.039Z,5.82
2018-12-08T13:31:22.037Z,6.00
2018-12-08T13:32:22.035Z,5.86
2018-12-08T13:33:22.028Z,5.85
2018-12-08T13:34:21.999Z,5.93
2018-12-08T13:35:21.984Z,5.81
2018-12-08T13:36:21.976Z,5.83
2018-12-08T13:37:21.967Z,5.75
2018-12-08T13:38:23.446Z,5.72
2018-12-08T13:39:21.957Z,5.81
2018-12-08T13:40:21.928Z,5.76
2018-12-08T13:41:21.910Z,5.71
2018-12-08T13:42:21.908Z,5.74
2018-12-08T13:43:21.909Z,5.61
2018-12-08T13:44:21.943Z,5.64
2018-12-08T13:45:21.888Z,5.71
2018-12-08T13:46:21.860Z,5.65
2018-12-08T13:47:21.864Z,5.61
2018-12-08T13:48:21.862Z,5.53
2018-12-08T13:49:21.823Z,5.57
2018-12-08T13:50:21.811Z,5.58
2018-12-08T13:51:21.820Z,5.49
2018-12-08T13:52:21.793Z,5.51
2018-12-08T13:53:21.776Z,5.54
2018-12-08T13:54:21.805Z,5.48
2018-12-08T13:55:21.762Z,5.58
2018-12-08T13:56:21.749Z,5.51
2018-12-08T13:57:21.765Z,5.48
2018-12-08T13:58:21.720Z,5.53
2018-12-08T13:59:21.718Z,5.56
2018-12-08T14:00:21.722Z,5.53
2018-12-08T14:01:21.689Z,5.54
2018-12-08T14:02:21.683Z,5.51